Résultats

LES BOUCLES DU VERDON - 91.3KM. Édition 2015.

91 Km
24/05/2015 à 00:00:00 - ()
531 arrivant(e)s.


 
Les autres classements de cet évènement




Place▲ Temps Dossard Nom Prenom Categ #Categ Sexe #Sexe Club Vit Moy Diplôme Partager
1 02:34:13 661 SCHMITZ IVAN MA 1 M 1 35.52
2 02:34:16 114 PHILIBERT NICOLAS M1 1 M 2 AVC.A 35.51
3 02:34:21 176 BOUSQUET PASCAL M2 1 M 3 SC NICE 35.49
4 02:35:38 681 THOMAS NICOLAS MA 2 M 4 35.20
5 02:40:23 200 PHILIPP ANTOINE MA 3 M 5 34.16
6 02:40:24 302 AGNIEL NICOLAS MA 4 M 6 AVC AIX EN PROVENCE 34.15
7 02:40:28 544 POUSSON JULIEN MA 5 M 7 SAINT-RAPHAEL TRIATHLON 34.14
8 02:40:56 116 POLIZZI JEREMY M1 2 M 8 TEAM SPOC NICE 34.04
9 02:40:56 418 GIOVINE DARIO MA 6 M 9 V.C. PONTOIS 34.04
10 02:40:58 126 ROSE CHRISTOPHE M3 1 M 10 SPRINTER CLUB NICE JOLLYWEAR 34.03
11 02:40:59 164 ROUX JANICK M3 2 M 11 VC SIX FOUNS 34.03
12 02:41:00 359 CASTALDO JEAN-LUC M1 3 M 12 VELO PLUS 34.02
13 02:41:00 136 SPRIET THOMAS M1 4 M 13 AVC AIX EN PROVENCE 34.02
14 02:41:01 92 MANDELLI JEAN-PHILIPPE M4 1 M 14 VC LA POMME 34.02
15 02:41:04 421 GOASGUEN KEVIN MA 7 M 15 VELOROC CAVAILLON 34.01
16 02:41:05 620 FERAUD NICOLAS MA 8 M 16 TEAM GALLARDO BIKE SHOP 34.01
17 02:41:07 174 LOPEZ DORIAN M1 5 M 17 R.O SANARY 34.00
18 02:41:08 73 HALGAND PATRICE M3 3 M 18 TEAM HALGAND-SPORTS 34.00
19 02:41:21 181 LUGLIA DANIEL M5 1 M 19 33.95
20 02:41:27 201 BAUDOUIN CLEMENT MA 9 M 20 33.93
21 02:41:28 324 BERNARD JEROME M3 4 M 21 TEAM MADEWIS 33.93
22 02:41:31 109 PAYANI DENIS M3 5 M 22 VCM 33.92
23 02:41:32 467 LE-MESNAGER DAMIEN MA 10 M 23 U.C.CARQUEIRANNAISE 33.91
24 02:41:33 135 SOLERIEU FRANCK M1 6 M 24 GFNY MONT VENTOUX 33.91
25 02:42:59 172 KIRSIG CHRISTOPHER MA 11 M 25 33.61
26 02:43:00 168 BRACCO BERNARD M6 1 M 26 ECSL ROGNES 33.61
27 02:43:01 330 BONNAFOUX JEAN-LUC M5 2 M 27 TEAM COMPETITION DURANCE VERDON 33.60
28 02:43:01 182 PERROUX DAVID M3 6 M 28 33.60
29 02:43:03 44 D'AMICO MARIO M6 2 M 29 UC MONACO 33.60
30 02:43:03 516 NOBILI FABIEN MA 12 M 30 TEAM MADEWIS 33.60
31 02:43:04 630 LABAT GUILLAUME M1 7 M 31 AMICALE CYCLISTE BISONTIN 33.59
32 02:43:05 113 PHILIBERT CHRISTOPHE M3 7 M 32 CYCLOCLUB SALONAIS 33.59
33 02:43:05 671 CASSAGNE SEBASTIEN M1 8 M 33 33.59
34 02:43:08 688 HUYART HUGO MA 13 M 34 33.58
35 02:43:08 177 CARDASSE JEREMIE M2 2 M 35 33.58
36 02:43:10 582 SEGURA GUILLAUME M1 9 M 36 MASSALIA CYCLISME 33.57
37 02:43:10 505 MORTIER JEREMY MA 14 M 37 SAINT RAPHAEL TRIATHLON 33.57
38 02:43:11 403 GALY ERIC M5 3 M 38 MASSALIA 33.57
39 02:43:12 62 GARNIER SERGE M4 2 M 39 UCPG 33.57
40 02:43:12 584 SEVENNEC YANN M3 8 M 40 TRIATHLON MANOSQUE 33.57
41 02:43:12 348 CABARROU ROMAIN MA 15 M 41 DRAGUIGNAN TRIATHLON 33.57
42 02:43:16 616 GARCERA NICOLAS M2 3 M 42 GFNY MONT VENTOUX 33.55
43 02:43:19 175 INCONNU M4 3 M 43 33.54
44 02:44:15 341 BOYER TEDY MA 16 M 44 VTTRANDO04 33.35
45 02:45:14 138 THEISSIER FABIEN M3 9 M 45 UC CARQUEIRANNE 33.15
46 02:45:14 545 PRESSOIR GERARD M7 1 M 46 VELO CLUB SULPICIEN 33.15
47 02:45:19 89 LE-ROUX MIKAEL M3 10 M 47 VC DRACENOIS 33.14
48 02:45:24 106 OLLIVIER THIERRY M4 4 M 48 VTT DU GARLABAN 33.12
49 02:47:26 678 VANOOSTEN ROMAIN MA 17 M 49 32.72
50 02:47:59 400 GABISON LUC MA 18 M 50 32.61
51 02:48:05 447 KARA MUSLUM M3 11 M 51 TEAM COMPETITION DURANCE VERDON 32.59
52 02:48:11 178 ROUGE FLORIAN M1 10 M 52 GFNY MONT VENTOUX-ECO CYCLO 32.57
53 02:48:48 71 GUERRAZZI CHRISTOPHE M2 4 M 53 VTT GARLABAN 32.45
54 02:48:48 429 GUERIN JEREMY MA 19 M 54 DRAGUIGNAN TRIATHLON 32.45
55 02:48:55 756 QUEILLE JEAN-LOUIS M4 5 M 55 32.43
56 02:49:13 572 SALAZAR LOIC MA 20 M 56 CVC MONTFAVET 32.37
57 02:49:15 179 NOEL SYLVAIN M4 6 M 57 32.37
58 02:49:16 654 SAINZ ANDRE M8 1 M 58 TEAM FONTAINE 32.36
59 02:49:18 387 DENIS EMMANUEL M3 12 M 59 CHAMPSAUR TRIATHLON 32.36
60 02:49:19 117 PONCE CYRIL M3 13 M 60 UC PAYS GAPENCAIS 32.35
61 02:49:21 308 ANDRIEU SYLVAIN MA 21 M 61 DRAGUIGNAN TRIATHLON 32.35
62 02:49:21 554 REBOUL THIERRY M4 7 M 62 FSPF POLICE 32.35
63 02:49:22 38 CHOW-CHINE LAURENT M3 14 M 63 VTT DU GARLABAN 32.34
64 02:49:22 118 PORTMANN EMMANUEL M3 15 M 64 CAVIGAL NICE SPORT 32.34
65 02:49:22 586 SIMONETTI ERIC M4 8 M 65 32.34
66 02:49:23 353 CAPRON ALAIN M4 9 M 66 UC OISANS 32.34
67 02:49:26 49 DE-SAINT-JEAN MAGDALENA W2 1 F 1 VC LA POMME-ECO CYCLO 32.33
68 02:49:26 674 DREANO TIMOTHEE MA 22 M 67 32.33
69 02:49:27 47 DEMICHELIS SERGE M2 5 M 68 GALLARDO BIKE 32.33
70 02:49:28 646 PAQUIER GUILLAUME M3 16 M 69 32.32
71 02:49:31 333 BOUILLAUX DAVID M1 11 M 70 32.32
72 02:50:09 48 DENIZOT FREDERIC M2 6 M 71 VTT DU GARLABAN 32.20
73 02:51:15 570 ROUX BAPTISTE MA 23 M 72 UNION CYCLOSPORTIFS SAVOYARDS 31.99
74 02:52:08 555 REBUFFAT PHILIPPE MA 24 M 73 VERDON TROIS TERROIRS 31.82
75 02:52:24 9 ARNOULD SEBASTIEN M3 17 M 74 OC RAPHAELOIS 31.77
76 02:52:27 668 LAIR FREDERIC M1 12 M 75 31.77
77 02:52:28 690 CAMILLIERI STEPHANE M2 7 M 76 31.76
78 02:52:32 627 PORTRON GUILLAUME MA 25 M 77 GALLARDO BIKE SHOP 31.75
79 02:52:38 16 BEAUMOND PHILIPPE M6 3 M 78 VTT DU GARLABAN 31.73
80 02:52:54 689 SIANO DANIEL M4 10 M 79 31.68
81 02:53:15 54 FATTORE RAYMOND M6 4 M 80 VTT DU GARLABAN 31.62
82 02:53:16 90 LORENT JEAN-FRANCOIS M5 4 M 81 VC CARQUEIRANNE 31.62
83 02:53:17 495 MELSCOET FRANCK M2 8 M 82 CRV LYON TRIATHLON 31.61
84 02:53:19 25 BONOMI SERGE M6 5 M 83 TEAM VTT STE VICTOIRE 31.61
85 02:53:19 140 TIRALONGO PHILIPPE M3 18 M 84 ROUE D'OR BRIGNOLES 31.61
86 02:53:19 171 BARTOLUCCI MARC M4 11 M 85 31.61
87 02:53:19 557 REIMAN JEAN-LOUIS M6 6 M 86 R.O.SANARY 31.61
88 02:53:20 30 CALMELET THIBAUT M1 13 M 87 GAP 31.60
89 02:53:21 76 HERNANDEZ JEAN-PHILIPPE M3 19 M 88 CYCLO CLUB AUPSOIS 31.60
90 02:53:22 497 MERLIN DIDIER M4 12 M 89 TEAM COMPETITION DURANCE VERDON 31.60
91 02:53:22 647 PAUSELLI THIERRY M3 20 M 90 VC VALLAURIS 31.60
92 02:53:23 137 SUJKOWSKI ALAIN M5 5 M 91 UC CARQUEIRANNE 31.59
93 02:53:26 24 BONFILS FRANCOIS M6 7 M 92 UC CARQUEIRANNE 31.59
94 02:53:27 629 BOUCHERET ERIC M5 6 M 93 VELO CLUB SULPICIEN 31.58
95 02:53:35 45 DAUGUET GILLES M3 21 M 94 VTT DU GARLABAN 31.56
96 02:53:50 513 NENZI JACQUES M4 13 M 95 VTT GARLABAN 31.51
97 02:54:56 343 BRICHE ERIC M3 22 M 96 ST TULLE VELO SPORT 31.31
98 02:54:58 375 COLLIN CEDRIC M1 14 M 97 US DONT CYCLISME 31.31
99 02:55:02 611 VIVES YANN MA 26 M 98 31.30
100 02:55:04 43 DADDI THIERRY M4 14 M 99 VTT DU GARLABAN 31.29